createdAt,value
2024-02-10T00:12:10.007Z,2.59
2024-02-10T00:18:15.449Z,2.41
2024-02-10T00:23:49.867Z,2.23
2024-02-10T00:29:01.071Z,2.15
2024-02-10T00:34:27.601Z,2.06
2024-02-10T00:40:31.731Z,2.00
2024-02-10T00:46:09.338Z,1.93
2024-02-10T00:52:03.521Z,1.90
2024-02-10T00:57:58.528Z,1.93
2024-02-10T01:03:38.630Z,1.94
2024-02-10T01:21:32.788Z,1.91
2024-02-10T01:27:16.867Z,1.93
2024-02-10T01:44:56.589Z,2.02
2024-02-10T02:15:19.890Z,2.59
2024-02-10T02:20:49.620Z,2.44
2024-02-10T02:26:24.195Z,2.27
2024-02-10T02:31:45.716Z,2.22
2024-02-10T02:37:12.264Z,2.20
2024-02-10T02:42:46.116Z,2.16
2024-02-10T02:48:12.816Z,2.10
2024-02-10T02:53:49.657Z,2.10
2024-02-10T02:59:45.426Z,2.14
2024-02-10T03:05:40.768Z,2.10
2024-02-10T03:11:06.702Z,2.06
2024-02-10T03:22:37.933Z,2.05
2024-02-10T03:28:28.210Z,2.05
2024-02-10T03:34:22.037Z,2.03
2024-02-10T03:40:14.921Z,2.01
2024-02-10T03:45:52.817Z,2.01
2024-02-10T03:51:36.795Z,1.99
2024-02-10T03:57:15.574Z,1.98
2024-02-10T04:02:56.609Z,2.00
2024-02-10T04:08:49.653Z,2.03
2024-02-10T04:14:44.416Z,2.04
2024-02-10T04:20:38.619Z,2.04
2024-02-10T04:26:42.656Z,2.03
2024-02-10T04:32:51.556Z,2.04
2024-02-10T04:38:29.752Z,2.05
2024-02-10T04:43:47.035Z,2.09
2024-02-10T04:49:42.288Z,2.11
2024-02-10T04:55:09.477Z,2.13
2024-02-10T05:00:55.432Z,2.19
2024-02-10T05:06:49.678Z,2.21
2024-02-10T05:12:33.622Z,2.20
2024-02-10T05:18:37.660Z,2.18
2024-02-10T05:24:41.783Z,2.19
2024-02-10T05:30:40.994Z,2.20
2024-02-10T05:36:36.582Z,2.25
2024-02-10T05:42:29.980Z,2.32
2024-02-10T05:48:15.324Z,2.37
2024-02-10T05:53:44.629Z,2.40
2024-02-10T05:59:22.614Z,2.46
2024-02-10T06:05:09.273Z,2.45
2024-02-10T06:28:13.864Z,2.46
2024-02-10T06:51:28.076Z,2.58
2024-02-10T07:20:21.787Z,2.90
2024-02-10T07:26:22.702Z,2.99
2024-02-10T07:32:26.793Z,3.14
2024-02-10T07:37:49.809Z,3.24
2024-02-10T07:43:37.520Z,3.29
2024-02-10T07:49:04.746Z,3.35
2024-02-10T07:54:58.077Z,3.41
2024-02-10T08:00:32.265Z,3.44
2024-02-10T08:12:21.953Z,3.37
2024-02-10T11:21:59.671Z,4.70
2024-02-10T11:28:03.648Z,4.45
2024-02-10T11:33:27.628Z,4.28
2024-02-10T11:39:30.925Z,4.23
2024-02-10T11:45:34.971Z,4.17
2024-02-10T11:51:24.434Z,4.15
2024-02-10T11:57:08.829Z,4.14
2024-02-10T12:31:31.187Z,4.06
2024-02-10T12:42:53.660Z,3.94
2024-02-10T12:48:41.683Z,3.96
2024-02-10T12:54:17.715Z,4.09
2024-02-10T12:59:51.695Z,4.11
2024-02-10T13:05:27.472Z,4.08
2024-02-10T13:10:42.163Z,4.04
2024-02-10T13:15:51.365Z,4.01
2024-02-10T13:20:55.185Z,3.99
2024-02-10T13:26:39.292Z,4.08
2024-02-10T13:32:26.369Z,4.09
2024-02-10T13:38:00.435Z,4.09
2024-02-10T13:43:27.838Z,4.09
2024-02-10T13:48:57.812Z,4.11
2024-02-10T13:54:37.864Z,4.09
2024-02-10T14:00:18.083Z,4.14
2024-02-10T14:06:08.200Z,4.17
2024-02-10T14:12:02.494Z,4.18
2024-02-10T14:17:16.397Z,4.07
2024-02-10T14:22:43.209Z,3.99
2024-02-10T14:27:56.250Z,3.96
2024-02-10T14:33:34.402Z,3.93
2024-02-10T14:39:31.136Z,3.95
2024-02-10T14:44:52.017Z,3.97
2024-02-10T14:50:26.415Z,3.91
2024-02-10T14:56:00.776Z,3.89
2024-02-10T15:01:08.618Z,3.85
2024-02-10T15:06:25.161Z,3.83
2024-02-10T15:11:52.552Z,3.83
2024-02-10T15:17:01.665Z,3.81
2024-02-10T15:22:20.719Z,3.75
2024-02-10T15:28:14.776Z,3.69
2024-02-10T15:33:23.377Z,3.63
2024-02-10T15:39:12.966Z,3.58
2024-02-10T15:44:29.460Z,3.52
2024-02-10T15:50:06.875Z,3.49
2024-02-10T15:55:34.004Z,3.48
2024-02-10T16:06:27.703Z,3.42
2024-02-10T16:11:42.420Z,3.41
2024-02-10T16:16:48.840Z,3.40
2024-02-10T16:22:15.826Z,3.38
2024-02-10T16:28:04.026Z,3.38
2024-02-10T16:33:14.461Z,3.39
2024-02-10T16:38:41.999Z,3.40
2024-02-10T16:43:45.531Z,3.43
2024-02-10T16:49:12.384Z,3.42
2024-02-10T16:54:16.261Z,3.43
2024-02-10T16:59:24.590Z,3.43
2024-02-10T17:04:36.915Z,3.40
2024-02-10T17:10:00.815Z,3.42
2024-02-10T17:15:48.068Z,3.42
2024-02-10T17:20:58.448Z,3.46
2024-02-10T17:26:42.937Z,3.49
2024-02-10T17:32:20.165Z,3.50
2024-02-10T17:38:05.631Z,3.52
2024-02-10T17:43:29.735Z,3.48
2024-02-10T17:49:35.035Z,3.49
2024-02-10T17:54:53.042Z,3.48
2024-02-10T18:00:17.370Z,3.50
2024-02-10T18:05:27.668Z,3.54
2024-02-10T18:10:54.639Z,3.50
2024-02-10T18:16:56.289Z,3.45
2024-02-10T18:22:16.070Z,3.43
2024-02-10T18:28:05.849Z,3.44
2024-02-10T18:33:50.070Z,3.42
2024-02-10T18:45:06.956Z,3.42
2024-02-10T18:56:47.176Z,3.46
2024-02-10T19:02:12.268Z,3.45
2024-02-10T19:07:30.331Z,3.43
2024-02-10T19:13:19.900Z,3.47
2024-02-10T19:18:33.353Z,3.52
2024-02-10T19:24:03.478Z,3.57
2024-02-10T19:29:19.994Z,3.62
2024-02-10T19:34:24.089Z,3.67
2024-02-10T19:39:44.505Z,3.68
2024-02-10T19:45:11.845Z,3.70
2024-02-10T19:51:08.684Z,3.74
2024-02-10T19:56:59.230Z,3.78
2024-02-10T20:02:12.912Z,3.85
2024-02-10T20:07:50.207Z,3.86
2024-02-10T20:14:08.314Z,3.90
2024-02-10T20:19:23.885Z,3.89
2024-02-10T20:25:10.629Z,3.87
2024-02-10T20:31:07.797Z,3.86
2024-02-10T20:37:11.958Z,3.84
2024-02-10T20:42:57.482Z,3.83
2024-02-10T20:48:35.128Z,3.83
2024-02-10T20:54:30.269Z,3.81
2024-02-10T21:00:08.516Z,3.76
2024-02-10T21:06:14.701Z,3.77
2024-02-10T21:12:01.451Z,3.76
2024-02-10T21:17:47.941Z,3.74
2024-02-10T21:23:45.901Z,3.77
2024-02-10T21:29:40.972Z,3.84
2024-02-10T21:35:14.627Z,3.84
2024-02-10T21:41:13.283Z,3.85
2024-02-10T22:20:33.572Z,3.88
2024-02-10T22:26:25.789Z,3.97
2024-02-10T22:32:03.572Z,3.94
2024-02-10T22:37:30.596Z,3.87
2024-02-10T22:42:56.239Z,3.83
2024-02-10T22:48:00.585Z,3.78
2024-02-10T22:53:26.218Z,3.78
2024-02-10T22:59:12.988Z,3.76
2024-02-10T23:44:57.780Z,3.84
2024-02-10T23:50:42.849Z,3.90
2024-02-10T23:55:52.777Z,3.92
